Time;durP1;ratioP1;P1;durP2;ratioP2;P2;SDS_P1;SDS_P2;PMS_P1;PMS_P2;Temp;Humidity;BMP_temperature;BMP_pressure;BME280_temperature;BME280_humidity;BME280_pressure;Samples;Min_cycle;Max_cycle;Signal;HPM_P1;HPM_P2
2024/01/02 00:01:39;;;;;;;3.85;1.92;;;9.30;1.00;;;7.51;100.00;99734.22;5007238;28;20070;-81
2024/01/02 00:04:07;;;;;;;4.13;1.80;;;10.20;1.00;;;7.30;100.00;99709.38;4978703;28;20053;-79
2024/01/02 00:06:34;;;;;;;4.95;2.03;;;9.30;1.00;;;7.43;100.00;99709.97;4976252;28;20034;-82
2024/01/02 00:09:02;;;;;;;4.03;2.60;;;10.20;1.00;;;7.61;100.00;99734.88;4991291;28;20497;-80
2024/01/02 00:11:29;;;;;;;5.60;1.92;;;9.30;1.00;;;8.01;100.00;99782.00;4976453;28;20104;-82
2024/01/02 00:13:56;;;;;;;7.53;1.75;;;9.30;1.00;;;7.66;100.00;99745.25;4961906;28;20046;-80
2024/01/02 00:16:23;;;;;;;4.15;1.80;;;8.40;1.00;;;7.63;100.00;99722.63;4963494;28;20077;-81
2024/01/02 00:18:53;;;;;;;4.20;1.60;;;9.80;1.00;;;7.51;100.00;99688.84;4995720;28;20043;-80
2024/01/02 00:21:20;;;;;;;2.70;1.75;;;9.30;1.00;;;7.37;100.00;99652.53;4968597;28;20050;-80
2024/01/02 00:23:47;;;;;;;3.60;2.10;;;10.20;99.90;;;7.53;100.00;99663.50;4967657;28;20049;-82
2024/01/02 00:26:14;;;;;;;5.32;2.05;;;9.30;99.90;;;7.55;100.00;99692.25;4978165;28;20068;-80
2024/01/02 00:28:42;;;;;;;2.28;1.50;;;10.10;99.90;;;7.71;100.00;99719.81;4971799;28;20057;-82
2024/01/02 00:31:09;;;;;;;4.07;2.20;;;9.30;99.90;;;7.63;100.00;99683.34;4994689;28;20136;-80
2024/01/02 00:33:36;;;;;;;5.43;1.70;;;9.30;99.90;;;7.38;100.00;99659.47;4995034;28;20048;-82
2024/01/02 00:36:04;;;;;;;4.32;1.90;;;10.40;99.90;;;7.30;100.00;99620.41;4978977;28;20065;-81
2024/01/02 00:38:33;;;;;;;3.85;1.83;;;9.20;99.90;;;7.43;100.00;99638.44;4975752;28;20042;-80
2024/01/02 00:41:00;;;;;;;2.70;1.50;;;9.80;99.90;;;7.82;100.00;99703.00;4972835;28;20568;-80
2024/01/02 00:43:27;;;;;;;5.13;1.63;;;10.10;99.90;;;7.61;100.00;99666.81;4970775;28;20755;-83
2024/01/02 00:45:56;;;;;;;2.42;1.67;;;10.40;99.90;;;7.13;100.00;99598.97;4962372;28;20485;-80
2024/01/02 00:48:23;;;;;;;2.17;1.83;;;8.70;99.90;;;7.60;100.00;99675.56;4972844;28;20038;-83
2024/01/02 00:50:50;;;;;;;2.47;1.40;;;9.30;99.90;;;7.89;100.00;99696.72;4971516;28;20516;-81
2024/01/02 00:53:17;;;;;;;2.65;1.52;;;9.10;99.90;;;7.61;100.00;99651.09;4988508;28;20046;-83
2024/01/02 00:55:45;;;;;;;2.45;1.73;;;10.60;99.90;;;7.41;100.00;99606.19;4990295;28;20061;-82
2024/01/02 00:58:12;;;;;;;3.80;2.38;;;9.30;99.90;;;8.14;100.00;99710.09;4981426;28;20081;-81
2024/01/02 01:00:39;;;;;;;5.18;1.58;;;9.70;99.90;;;7.89;100.00;99681.00;4968184;28;20084;-81
2024/01/02 01:03:06;;;;;;;3.53;1.67;;;9.20;99.90;;;7.76;100.00;99662.13;4973147;28;20054;-80
2024/01/02 01:05:34;;;;;;;3.05;1.63;;;10.80;99.90;;;7.14;100.00;99544.00;4956234;28;20046;-81
2024/01/02 01:08:01;;;;;;;4.15;1.60;;;9.30;99.90;;;8.03;100.00;99665.81;4986248;28;20047;-81
2024/01/02 01:10:28;;;;;;;3.30;1.90;;;9.30;99.90;;;7.02;100.00;99513.75;4958543;28;20100;-81
2024/01/02 01:12:58;;;;;;;1.77;1.52;;;9.70;94.60;;;7.40;100.00;99563.47;4989285;28;20046;-82
2024/01/02 01:15:25;;;;;;;3.10;1.60;;;9.30;90.50;;;7.70;100.00;99622.97;4974211;28;20052;-80
2024/01/02 01:17:52;;;;;;;4.75;1.70;;;9.40;88.50;;;7.65;100.00;99597.75;4988458;28;20426;-81
2024/01/02 01:20:20;;;;;;;1.92;1.15;;;9.30;79.00;;;7.98;100.00;99643.25;4991383;28;20106;-82
2024/01/02 01:22:49;;;;;;;3.83;1.63;;;9.30;62.80;;;7.24;100.00;99531.56;4992840;28;20050;-80
2024/01/02 01:25:16;;;;;;;2.85;1.52;;;9.30;76.20;;;8.12;100.00;99656.00;4976670;28;20750;-82
2024/01/02 01:27:44;;;;;;;2.30;1.25;;;9.40;18.10;;;7.65;100.00;99571.56;4987965;28;20058;-83
2024/01/02 01:30:11;;;;;;;2.90;1.48;;;9.40;12.80;;;8.03;100.00;99628.25;4975218;28;20050;-81
2024/01/02 01:32:39;;;;;;;4.47;1.50;;;9.40;17.80;;;8.14;100.00;99630.63;4962227;28;20527;-81
2024/01/02 01:35:07;;;;;;;2.97;1.50;;;9.90;1.00;;;8.09;100.00;99622.88;4978131;28;20050;-81
2024/01/02 01:37:34;;;;;;;3.38;1.67;;;9.40;3.60;;;7.63;100.00;99562.91;4980170;28;20073;-79
2024/01/02 01:40:02;;;;;;;2.58;1.15;;;10.30;15.80;;;7.87;100.00;99573.63;4980996;28;20058;-80
2024/01/02 01:42:29;;;;;;;2.60;1.38;;;9.40;41.90;;;7.82;100.00;99564.22;4965200;28;20439;-81
2024/01/02 01:44:56;;;;;;;2.97;1.60;;;9.90;99.90;;;7.87;100.00;99581.50;4979013;28;20046;-80
2024/01/02 01:47:23;;;;;;;3.80;1.38;;;9.50;99.90;;;7.85;100.00;99561.50;4996151;28;20069;-81
2024/01/02 01:49:52;;;;;;;2.92;1.50;;;9.80;1.00;;;8.04;100.00;99601.16;4961242;28;20055;-80
2024/01/02 01:52:20;;;;;;;2.63;1.10;;;9.20;1.00;;;7.10;100.00;99450.78;4980467;28;20129;-81
2024/01/02 01:54:48;;;;;;;2.00;1.20;;;9.90;75.20;;;7.94;100.00;99585.69;4964479;28;20133;-82
2024/01/02 01:57:15;;;;;;;1.63;1.17;;;10.20;99.90;;;7.56;100.00;99522.06;4985284;28;20048;-80
2024/01/02 01:59:44;;;;;;;1.38;1.00;;;9.50;1.00;;;7.58;100.00;99516.78;4976221;28;20074;-82
2024/01/02 02:02:12;;;;;;;1.77;1.20;;;10.20;1.00;;;7.93;100.00;99573.50;4988923;28;20619;-82
2024/01/02 02:04:45;;;;;;;6.07;1.20;;;10.00;1.00;;;8.02;100.00;99595.09;4982194;28;20042;-83
2024/01/02 02:07:13;;;;;;;1.58;1.00;;;9.40;91.90;;;7.58;100.00;99517.66;4956511;28;20055;-81
2024/01/02 02:09:40;;;;;;;2.35;1.02;;;9.50;30.40;;;7.56;100.00;99536.91;4994906;28;20039;-86
2024/01/02 02:12:10;;;;;;;1.95;1.50;;;9.30;1.00;;;7.43;100.00;99525.91;5001604;28;20504;-83
2024/01/02 02:14:40;;;;;;;1.63;1.20;;;9.30;57.60;;;7.19;100.00;99471.50;5000563;28;20035;-79
2024/01/02 02:17:07;;;;;;;1.98;1.02;;;10.30;6.90;;;7.46;100.00;99491.78;4980631;28;20051;-81
2024/01/02 02:19:34;;;;;;;1.63;1.10;;;9.30;1.00;;;8.13;100.00;99592.22;4980721;28;20051;-81
2024/01/02 02:22:02;;;;;;;7.68;1.40;;;9.80;99.90;;;7.88;100.00;99548.31;4954571;28;20054;-80
2024/01/02 02:24:29;;;;;;;1.13;1.00;;;9.30;7.80;;;7.51;100.00;99509.09;4957214;28;20046;-79
2024/01/02 02:26:58;;;;;;;2.45;1.10;;;9.20;99.90;;;7.40;100.00;99484.06;4950381;28;20089;-80
2024/01/02 02:29:25;;;;;;;1.65;1.10;;;9.20;1.00;;;7.95;100.00;99555.09;4983072;28;20051;-80
2024/01/02 02:31:52;;;;;;;1.48;1.17;;;9.20;1.00;;;7.66;100.00;99535.78;4987205;28;20050;-79
2024/01/02 02:34:19;;;;;;;2.58;1.40;;;9.10;74.10;;;7.09;100.00;99447.31;4941034;28;20046;-80
2024/01/02 02:36:49;;;;;;;1.42;1.23;;;9.10;99.90;;;7.75;100.00;99542.56;4981376;28;20058;-79
2024/01/02 02:39:16;;;;;;;2.08;1.17;;;9.00;99.90;;;7.50;100.00;99523.09;4990914;28;20042;-78
2024/01/02 02:41:44;;;;;;;5.63;2.08;;;9.60;99.90;;;7.73;100.00;99544.34;4975689;28;20043;-82
2024/01/02 02:44:11;;;;;;;2.17;1.30;;;9.80;1.00;;;6.90;100.00;99409.44;4979414;28;20058;-81
2024/01/02 02:46:38;;;;;;;2.47;1.50;;;9.20;1.00;;;7.43;100.00;99507.56;4983199;28;20046;-80
2024/01/02 02:49:05;;;;;;;1.98;1.42;;;8.90;1.00;;;7.00;100.00;99428.38;4972867;28;20108;-80
2024/01/02 02:51:32;;;;;;;3.45;1.45;;;8.90;1.00;;;7.48;100.00;99519.63;4970167;28;20047;-80
2024/01/02 02:53:59;;;;;;;1.90;1.35;;;8.90;1.00;;;7.56;100.00;99510.75;4985006;28;20053;-82
2024/01/02 02:56:26;;;;;;;2.45;1.40;;;9.70;1.00;;;7.08;100.00;99427.28;4987641;28;20131;-80
2024/01/02 02:58:53;;;;;;;3.58;1.50;;;9.60;1.00;;;7.43;100.00;99476.16;4969736;28;20046;-79
2024/01/02 03:01:23;;;;;;;1.75;1.33;;;8.90;1.00;;;7.06;100.00;99410.75;4965744;28;20057;-79
2024/01/02 03:03:51;;;;;;;3.15;1.40;;;10.00;1.00;;;6.82;100.00;99373.00;4968398;28;20050;-78
2024/01/02 03:06:18;;;;;;;1.90;1.33;;;9.90;1.00;;;7.60;100.00;99513.25;4951606;28;20042;-81
2024/01/02 03:08:45;;;;;;;2.75;1.35;;;9.80;1.00;;;6.81;100.00;99361.69;4974081;28;20054;-79
2024/01/02 03:11:13;;;;;;;1.95;1.00;;;9.90;1.00;;;7.37;100.00;99464.09;4991184;28;20058;-80
2024/01/02 03:13:40;;;;;;;2.95;1.13;;;9.60;1.00;;;6.94;100.00;99388.41;4991983;28;20027;-80
2024/01/02 03:16:09;;;;;;;1.77;1.20;;;8.90;1.00;;;7.43;100.00;99489.25;4991478;28;20046;-80
2024/01/02 03:18:36;;;;;;;2.75;1.40;;;10.30;1.00;;;7.24;100.00;99464.41;4984066;28;20049;-80
2024/01/02 03:21:05;;;;;;;5.60;1.33;;;9.40;1.00;;;7.28;100.00;99451.22;4981812;28;20050;-80
2024/01/02 03:23:32;;;;;;;1.75;1.30;;;8.60;1.00;;;6.87;100.00;99392.06;4957831;28;20054;-79
2024/01/02 03:25:59;;;;;;;3.47;1.42;;;8.60;1.00;;;7.27;100.00;99455.63;4969565;28;20504;-80
2024/01/02 03:28:26;;;;;;;1.20;1.10;;;9.60;1.00;;;6.99;100.00;99405.72;4985415;28;20049;-78
2024/01/02 03:30:53;;;;;;;1.73;1.13;;;10.20;11.50;;;7.09;100.00;99436.00;4993512;28;20038;-79
2024/01/02 03:33:20;;;;;;;2.60;1.20;;;9.60;10.50;;;6.37;100.00;99313.97;4975298;28;20042;-79
2024/01/02 03:35:48;;;;;;;1.63;1.30;;;8.40;20.00;;;7.16;100.00;99448.00;4987266;28;20046;-77
2024/01/02 03:38:18;;;;;;;2.42;1.60;;;8.30;19.90;;;6.93;100.00;99394.53;4973616;28;20035;-78
2024/01/02 03:40:45;;;;;;;2.40;1.55;;;9.60;26.00;;;6.53;100.00;99340.59;4972212;28;20105;-78
2024/01/02 03:43:12;;;;;;;1.67;1.20;;;8.30;29.00;;;6.51;100.00;99314.50;4977334;28;20046;-79
2024/01/02 03:45:40;;;;;;;3.05;1.27;;;9.20;24.70;;;6.65;100.00;99321.16;4953768;28;20050;-80
2024/01/02 03:48:07;;;;;;;4.15;1.48;;;9.20;25.50;;;6.22;100.00;99253.34;4976680;28;20409;-79
2024/01/02 03:50:34;;;;;;;4.03;1.25;;;8.70;32.90;;;6.88;100.00;99362.41;4948841;28;20396;-79
2024/01/02 03:53:02;;;;;;;1.73;1.27;;;8.30;35.10;;;6.46;100.00;99286.75;4975663;28;20176;-78
2024/01/02 03:55:29;;;;;;;1.55;1.27;;;8.30;31.70;;;6.38;100.00;99266.88;4988701;28;20066;-77
2024/01/02 03:57:59;;;;;;;2.67;1.35;;;8.90;34.90;;;6.34;100.00;99256.56;4986460;28;20071;-81
2024/01/02 04:00:29;;;;;;;1.63;1.25;;;9.10;42.10;;;6.45;100.00;99292.88;4961254;28;20045;-79
2024/01/02 04:02:56;;;;;;;1.20;1.10;;;9.80;40.40;;;6.43;100.00;99282.47;4958351;28;20043;-80
2024/01/02 04:05:23;;;;;;;2.20;1.30;;;9.80;38.20;;;6.31;100.00;99251.41;4968343;28;20042;-78
2024/01/02 04:07:51;;;;;;;1.73;1.10;;;9.20;39.80;;;6.44;100.00;99278.94;4976964;28;20034;-78
2024/01/02 04:10:18;;;;;;;4.00;1.60;;;8.80;46.00;;;6.39;100.00;99241.63;4975171;28;20089;-79
2024/01/02 04:12:45;;;;;;;2.40;1.30;;;9.20;45.70;;;6.70;100.00;99300.97;4981715;28;20050;-78
2024/01/02 04:15:12;;;;;;;2.30;1.52;;;9.00;45.00;;;6.35;100.00;99240.84;4990521;28;20047;-81
2024/01/02 04:17:40;;;;;;;1.73;1.30;;;8.20;38.90;;;6.13;100.00;99179.59;4985988;28;20046;-81
2024/01/02 04:20:08;;;;;;;1.60;1.50;;;9.70;43.00;;;6.36;100.00;99208.59;4978809;28;20072;-80
2024/01/02 04:22:35;;;;;;;3.33;1.52;;;8.20;45.00;;;6.89;100.00;99288.28;4977832;28;20069;-80
2024/01/02 04:25:03;;;;;;;3.00;1.20;;;8.40;41.20;;;6.96;100.00;99302.06;4993953;28;20104;-80
2024/01/02 04:27:30;;;;;;;2.03;1.30;;;8.20;44.40;;;6.93;100.00;99302.13;4978731;28;20050;-80
2024/01/02 04:29:57;;;;;;;1.73;1.58;;;8.50;43.40;;;6.96;100.00;99278.53;4969778;28;20047;-82
2024/01/02 04:32:25;;;;;;;2.65;1.20;;;8.20;43.70;;;6.32;100.00;99187.81;4969343;28;20097;-78
2024/01/02 04:34:52;;;;;;;1.20;1.10;;;8.20;44.10;;;6.85;100.00;99247.41;4977401;28;20512;-79
2024/01/02 04:37:19;;;;;;;1.45;1.02;;;8.10;50.60;;;6.75;100.00;99249.41;4977479;28;20074;-80
2024/01/02 04:39:46;;;;;;;2.47;1.48;;;8.10;51.00;;;6.83;100.00;99248.38;4974882;28;20460;-79
2024/01/02 04:42:13;;;;;;;2.47;1.00;;;8.30;47.50;;;6.38;100.00;99170.22;4995639;28;20050;-79
2024/01/02 04:44:40;;;;;;;1.08;1.02;;;9.00;48.60;;;6.66;100.00;99231.38;4996444;28;20109;-80
2024/01/02 04:47:08;;;;;;;1.65;1.05;;;8.10;47.80;;;6.36;100.00;99174.63;4993896;28;20128;-80
2024/01/02 04:49:35;;;;;;;1.25;1.15;;;8.20;48.90;;;6.63;100.00;99200.94;4996858;28;20111;-80
2024/01/02 04:52:04;;;;;;;1.20;1.10;;;8.10;55.60;;;6.89;100.00;99238.59;4996790;28;20042;-80
2024/01/02 04:54:34;;;;;;;3.33;1.30;;;8.00;57.40;;;6.28;100.00;99110.41;4989768;28;20501;-80
2024/01/02 04:57:02;;;;;;;1.88;1.42;;;9.10;56.40;;;6.38;100.00;99135.41;4990262;28;20055;-80
2024/01/02 04:59:31;;;;;;;1.20;1.10;;;8.10;58.30;;;6.58;100.00;99167.97;4976384;28;20050;-79
2024/01/02 05:01:58;;;;;;;1.50;1.20;;;9.00;56.20;;;6.24;100.00;99092.22;4953791;28;20042;-80
2024/01/02 05:04:25;;;;;;;1.52;1.10;;;8.90;57.00;;;6.39;100.00;99103.16;4973227;28;20062;-79
2024/01/02 05:06:52;;;;;;;1.63;1.20;;;8.10;54.30;;;6.38;100.00;99117.13;4972104;28;20046;-79
2024/01/02 05:09:20;;;;;;;2.85;1.25;;;8.10;52.10;;;6.37;100.00;99124.09;4989606;28;20077;-79
2024/01/02 05:11:48;;;;;;;2.13;1.13;;;7.00;59.80;;;6.27;100.00;99119.16;4974720;28;20053;-79
2024/01/02 05:14:17;;;;;;;1.00;0.98;;;8.90;57.90;;;5.92;100.00;99044.28;4985257;28;20155;-79
2024/01/02 05:16:44;;;;;;;3.00;1.20;;;9.10;59.60;;;6.32;100.00;99101.59;4970253;28;20062;-79
2024/01/02 05:19:11;;;;;;;1.15;1.05;;;8.80;58.80;;;6.04;100.00;99052.72;4972132;28;20126;-81
2024/01/02 05:21:38;;;;;;;3.38;1.55;;;8.60;59.50;;;6.72;100.00;99157.16;4987251;28;20133;-79
2024/01/02 05:24:05;;;;;;;0.88;0.88;;;8.10;62.80;;;6.02;100.00;99057.97;4953378;28;20134;-80
2024/01/02 05:26:32;;;;;;;2.20;1.20;;;8.10;58.60;;;6.01;100.00;99029.25;4986829;28;20109;-80
2024/01/02 05:28:59;;;;;;;2.42;1.98;;;8.00;59.80;;;6.45;100.00;99109.97;4994332;28;20065;-79
2024/01/02 05:31:27;;;;;;;1.60;1.50;;;9.20;65.80;;;5.95;100.00;99025.06;4989260;28;20070;-80
2024/01/02 05:33:54;;;;;;;1.05;0.95;;;8.00;65.30;;;6.67;100.00;99129.38;4968768;28;20133;-80
2024/01/02 05:36:21;;;;;;;1.60;1.13;;;8.80;60.80;;;5.97;100.00;99026.72;4964753;28;20050;-80
2024/01/02 05:38:48;;;;;;;1.63;1.20;;;8.60;65.70;;;6.24;100.00;99060.88;4989948;28;20042;-80
2024/01/02 05:41:15;;;;;;;3.88;1.30;;;8.50;62.50;;;6.56;100.00;99110.53;4973018;28;20050;-81
2024/01/02 05:43:42;;;;;;;1.13;1.02;;;9.10;64.60;;;6.73;100.00;99112.66;4974085;28;20045;-80
2024/01/02 05:46:09;;;;;;;1.85;1.10;;;9.10;63.30;;;5.97;100.00;99005.00;4981299;28;20050;-81
2024/01/02 05:48:36;;;;;;;1.02;1.02;;;8.00;65.20;;;6.16;100.00;99031.47;4971403;28;20145;-80
2024/01/02 05:51:04;;;;;;;1.00;1.00;;;8.00;65.90;;;6.73;100.00;99106.59;4983418;28;20102;-80
2024/01/02 05:53:31;;;;;;;2.25;1.50;;;8.10;62.40;;;6.87;100.00;99127.97;4988793;28;20042;-80
2024/01/02 05:55:58;;;;;;;1.30;1.20;;;8.10;64.60;;;5.75;100.00;98958.56;4990334;28;20050;-80
2024/01/02 05:58:26;;;;;;;1.08;1.08;;;7.90;62.50;;;6.41;100.00;99056.94;4986335;28;20583;-82
2024/01/02 06:00:53;;;;;;;0.93;0.93;;;8.10;60.10;;;6.72;100.00;99089.19;4988593;28;20054;-84
2024/01/02 06:03:20;;;;;;;2.83;1.23;;;8.40;56.00;;;6.24;100.00;99031.25;4974754;28;20081;-82
2024/01/02 06:05:48;;;;;;;1.17;1.10;;;8.10;59.60;;;6.77;100.00;99103.00;4973908;28;20500;-80
2024/01/02 06:08:18;;;;;;;2.22;2.03;;;8.00;60.90;;;6.02;100.00;98963.13;4982273;28;20057;-82
2024/01/02 06:10:45;;;;;;;1.30;1.20;;;8.10;61.60;;;6.05;100.00;98953.44;4984860;28;20062;-82
2024/01/02 06:13:13;;;;;;;2.35;1.20;;;9.40;64.70;;;6.65;100.00;99046.69;4966104;28;20146;-82
2024/01/02 06:15:40;;;;;;;1.50;1.00;;;9.50;65.90;;;6.25;100.00;98983.38;4975895;28;20047;-82
2024/01/02 06:18:07;;;;;;;0.98;0.98;;;7.30;62.20;;;6.73;100.00;99070.84;4992885;28;20074;-81
2024/01/02 06:20:38;;;;;;;5.22;4.82;;;8.20;55.80;;;6.92;100.00;99059.84;4994289;28;20038;-81
2024/01/02 06:23:08;;;;;;;1.00;1.00;;;8.20;60.90;;;6.51;100.00;99027.03;4988771;28;20121;-80
2024/01/02 06:25:35;;;;;;;1.27;1.00;;;9.00;59.30;;;6.93;100.00;99080.72;4972401;28;20046;-80
2024/01/02 06:28:03;;;;;;;1.20;1.10;;;8.20;52.80;;;7.00;100.00;99094.47;4970703;28;20117;-80
2024/01/02 06:30:30;;;;;;;1.27;1.17;;;8.80;52.00;;;6.52;100.00;98992.16;4979832;28;20038;-80
2024/01/02 06:32:57;;;;;;;2.30;1.02;;;8.20;51.40;;;6.70;100.00;99044.78;4962400;28;20045;-80
2024/01/02 06:35:25;;;;;;;1.08;0.80;;;9.00;53.70;;;6.92;100.00;99033.69;4986424;28;20042;-80
2024/01/02 06:37:52;;;;;;;0.98;0.98;;;8.40;49.90;;;6.78;100.00;99011.41;4970662;28;20039;-80
2024/01/02 06:40:19;;;;;;;1.33;1.00;;;8.90;47.10;;;6.65;100.00;98997.03;4993794;28;20050;-80
2024/01/02 06:42:47;;;;;;;0.80;0.80;;;8.40;48.60;;;6.69;100.00;99011.72;4978813;28;20046;-80
2024/01/02 06:45:14;;;;;;;1.20;1.10;;;8.90;47.60;;;7.20;100.00;99072.06;4978349;28;20053;-81
2024/01/02 06:47:41;;;;;;;1.20;1.10;;;8.50;46.10;;;7.38;100.00;99113.34;4995245;28;20047;-80
2024/01/02 06:50:08;;;;;;;1.88;0.90;;;8.50;44.90;;;7.13;100.00;99054.88;4978233;28;20053;-81
2024/01/02 06:52:38;;;;;;;1.85;1.20;;;8.50;46.60;;;7.24;100.00;99090.25;4998182;28;20237;-80
2024/01/02 06:55:06;;;;;;;2.13;1.58;;;9.00;46.50;;;7.28;100.00;99104.09;5000845;28;20034;-78
2024/01/02 06:57:33;;;;;;;1.55;1.10;;;8.60;42.20;;;7.30;100.00;99107.53;4958021;28;20100;-79
2024/01/02 07:00:00;;;;;;;1.98;1.10;;;9.00;46.00;;;6.93;100.00;99061.53;4971153;28;20070;-78
2024/01/02 07:02:29;;;;;;;1.10;1.00;;;9.90;46.70;;;6.51;100.00;98989.59;4979618;28;20232;-79
2024/01/02 07:04:57;;;;;;;1.17;1.08;;;8.60;53.40;;;6.78;100.00;99026.28;4994751;28;20041;-79
2024/01/02 07:07:24;;;;;;;0.80;0.80;;;9.20;45.80;;;7.35;100.00;99081.22;4983663;28;20051;-81
2024/01/02 07:09:51;;;;;;;1.05;0.95;;;9.60;42.20;;;7.04;100.00;99033.31;4974420;28;20042;-80
2024/01/02 07:12:18;;;;;;;1.27;1.17;;;8.80;41.30;;;6.92;100.00;99016.25;4988916;28;20046;-78
2024/01/02 07:14:45;;;;;;;1.00;1.00;;;9.60;45.10;;;7.04;100.00;99030.69;4982906;28;20105;-79
2024/01/02 07:17:12;;;;;;;1.33;1.23;;;9.20;40.30;;;6.93;100.00;99011.84;4970257;28;20050;-83
2024/01/02 07:19:39;;;;;;;1.20;1.00;;;8.50;46.60;;;6.83;100.00;99029.59;4994991;28;20049;-80
2024/01/02 07:22:06;;;;;;;1.10;1.00;;;9.40;57.50;;;6.89;100.00;99045.13;4977596;28;20058;-79
2024/01/02 07:24:34;;;;;;;4.95;1.05;;;8.60;56.10;;;6.59;100.00;98994.59;4960250;28;20428;-79
2024/01/02 07:27:01;;;;;;;1.25;1.00;;;9.40;57.00;;;6.85;100.00;99022.56;4973104;28;20082;-78
2024/01/02 07:29:28;;;;;;;2.22;1.23;;;8.90;59.30;;;7.22;100.00;99096.44;4975717;28;20473;-79
2024/01/02 07:31:55;;;;;;;2.15;1.20;;;9.50;59.60;;;6.70;100.00;98982.06;4966545;28;20493;-79
2024/01/02 07:34:24;;;;;;;1.20;1.10;;;9.70;60.30;;;6.68;100.00;99012.63;4990591;28;20223;-79
2024/01/02 07:36:51;;;;;;;1.10;1.00;;;8.90;61.80;;;7.31;100.00;99105.75;4959015;28;20057;-80
2024/01/02 07:39:18;;;;;;;2.65;1.20;;;9.30;67.20;;;6.87;100.00;99039.06;4973690;28;20053;-80
2024/01/02 07:41:45;;;;;;;1.10;1.00;;;9.90;64.30;;;6.76;100.00;99044.59;4960164;28;20047;-79
2024/01/02 07:44:13;;;;;;;2.08;1.42;;;8.60;66.80;;;6.75;100.00;99029.81;4972803;28;20078;-80
2024/01/02 07:46:40;;;;;;;1.70;1.40;;;8.60;64.10;;;6.65;100.00;99036.25;4966809;28;20092;-80
2024/01/02 07:49:07;;;;;;;1.27;1.17;;;8.60;64.70;;;6.50;100.00;98998.31;4973437;28;20050;-80
2024/01/02 07:51:37;;;;;;;3.53;1.25;;;9.50;65.90;;;7.42;100.00;99144.69;4985190;28;20129;-79
2024/01/02 07:54:04;;;;;;;1.52;1.42;;;8.60;68.10;;;7.45;100.00;99129.72;4990821;28;20046;-79
2024/01/02 07:56:32;;;;;;;1.63;1.40;;;8.60;69.00;;;6.88;100.00;99084.38;4987800;28;20092;-80
2024/01/02 07:59:00;;;;;;;1.92;1.30;;;9.10;71.50;;;6.66;100.00;99017.88;4992196;28;20046;-84
2024/01/02 08:01:27;;;;;;;1.27;1.20;;;9.60;70.70;;;6.81;100.00;99053.19;4970755;28;20038;-83
2024/01/02 08:03:54;;;;;;;1.20;1.10;;;8.60;73.00;;;7.47;100.00;99158.50;4994078;28;20057;-79
2024/01/02 08:06:21;;;;;;;1.20;1.10;;;8.70;71.70;;;6.87;100.00;99069.59;4962783;28;20073;-81
2024/01/02 08:08:49;;;;;;;2.00;1.38;;;10.10;71.40;;;6.79;100.00;99088.97;4994478;28;20070;-81
2024/01/02 08:11:16;;;;;;;2.42;1.70;;;8.60;74.80;;;6.73;100.00;99068.22;4961336;28;20622;-79
2024/01/02 08:13:43;;;;;;;3.42;1.55;;;9.40;75.10;;;6.93;100.00;99091.19;4976812;28;20046;-80
2024/01/02 08:16:11;;;;;;;1.50;1.40;;;9.10;75.50;;;6.80;100.00;99040.16;4977848;28;20047;-79
2024/01/02 08:18:41;;;;;;;1.30;1.10;;;7.80;73.30;;;6.73;100.00;99046.47;4993900;28;20042;-79
2024/01/02 08:21:08;;;;;;;1.38;1.15;;;9.50;70.90;;;7.19;100.00;99094.78;4978400;28;20145;-79
2024/01/02 08:23:38;;;;;;;1.40;1.30;;;8.70;72.20;;;7.25;100.00;99109.41;4978479;28;20742;-80
2024/01/02 08:26:11;;;;;;;1.55;1.45;;;9.40;69.30;;;7.42;100.00;99129.00;4994336;28;20412;-80
2024/01/02 08:28:41;;;;;;;3.80;1.17;;;8.70;69.50;;;6.72;100.00;99003.78;4978371;28;20050;-80
2024/01/02 08:31:08;;;;;;;;;;;8.70;68.40;;;6.97;100.00;99041.41;4978637;28;20112;-79
2024/01/02 08:33:35;;;;;;;1.00;1.00;;;8.00;68.60;;;6.89;100.00;99025.94;4995100;28;19949;-79
2024/01/02 08:36:05;;;;;;;3.83;1.50;;;10.20;68.30;;;7.46;100.00;99097.41;4979838;28;20050;-80
2024/01/02 08:38:33;;;;;;;1.10;1.00;;;8.80;67.30;;;7.06;100.00;99041.97;4953161;28;20051;-80
2024/01/02 08:41:02;;;;;;;2.67;1.60;;;9.80;65.30;;;7.61;100.00;99119.66;4992624;28;20050;-79
2024/01/02 08:43:29;;;;;;;2.17;1.23;;;8.80;64.50;;;7.20;100.00;99059.00;4992966;28;20049;-80
2024/01/02 08:45:57;;;;;;;1.60;1.20;;;9.60;63.60;;;7.79;100.00;99159.25;5008589;28;20612;-80
2024/01/02 08:48:24;;;;;;;1.48;1.38;;;10.20;58.80;;;7.16;100.00;99054.78;4994474;28;20046;-80
2024/01/02 08:50:52;;;;;;;1.23;1.13;;;9.90;56.90;;;7.20;100.00;99065.09;4997042;28;20078;-79
2024/01/02 08:53:19;;;;;;;1.65;1.40;;;9.30;53.00;;;7.20;100.00;99091.25;4998465;28;20109;-80
2024/01/02 08:55:46;;;;;;;2.22;1.20;;;8.90;54.00;;;7.27;100.00;99063.16;4995881;28;20054;-79
2024/01/02 08:58:13;;;;;;;1.33;1.23;;;9.30;54.00;;;7.75;100.00;99152.41;4981965;28;20054;-80
2024/01/02 09:00:40;;;;;;;2.03;1.50;;;9.50;53.10;;;7.33;100.00;99107.44;5000505;28;20046;-80
2024/01/02 09:03:11;;;;;;;1.85;1.38;;;10.10;56.60;;;7.18;100.00;99068.66;4982543;28;20050;-81
2024/01/02 09:05:38;;;;;;;1.48;1.38;;;9.30;54.00;;;7.31;100.00;99075.22;4983671;28;20070;-80
2024/01/02 09:08:06;;;;;;;1.30;1.20;;;10.40;50.30;;;7.48;100.00;99084.28;5000027;28;20046;-80
2024/01/02 09:10:33;;;;;;;1.25;1.17;;;9.10;48.20;;;7.24;100.00;99044.91;4990468;28;20069;-80
2024/01/02 09:13:04;;;;;;;3.50;1.58;;;9.10;50.20;;;7.18;100.00;99050.34;4994545;28;20058;-80
2024/01/02 09:15:35;;;;;;;1.00;1.00;;;9.60;47.70;;;7.42;100.00;99084.50;4960203;28;20034;-80
2024/01/02 09:18:03;;;;;;;1.30;1.20;;;9.20;49.10;;;7.42;100.00;99081.88;4981196;28;20068;-80
2024/01/02 09:20:30;;;;;;;1.13;1.00;;;9.10;46.00;;;8.16;100.00;99188.63;4992698;28;20049;-80
2024/01/02 09:22:58;;;;;;;1.55;1.10;;;9.90;42.70;;;7.46;100.00;99070.41;4991387;28;20573;-78
2024/01/02 09:25:30;;;;;;;1.60;1.50;;;10.00;43.40;;;7.99;100.00;99153.38;4987609;28;20069;-79
2024/01/02 09:27:59;;;;;;;1.48;1.38;;;9.30;41.50;;;7.71;100.00;99107.13;4991303;28;20042;-81
2024/01/02 09:30:29;;;;;;;1.25;1.00;;;9.70;38.80;;;8.19;100.00;99202.47;4988155;28;20056;-82
2024/01/02 09:32:58;;;;;;;1.42;1.33;;;8.50;38.00;;;8.20;100.00;99178.00;4990352;28;20450;-82
2024/01/02 09:35:25;;;;;;;1.80;1.50;;;9.30;31.40;;;7.66;100.00;99102.03;4965943;28;20128;-82
2024/01/02 09:37:53;;;;;;;1.20;1.10;;;9.40;39.70;;;7.60;100.00;99117.94;4948935;28;20051;-80
2024/01/02 09:41:05;;;;;;;2.08;1.35;;;10.00;41.50;;;8.21;100.00;99179.72;4957733;28;20050;-80
2024/01/02 09:44:19;;;;;;;4.43;2.53;;;9.40;45.10;;;8.27;100.00;99189.09;4974128;28;20053;-80
2024/01/02 09:47:01;;;;;;;1.88;1.70;;;9.30;47.00;;;7.87;100.00;99146.75;4973450;28;20062;-81
2024/01/02 09:49:47;;;;;;;1.55;1.40;;;9.80;53.40;;;8.23;100.00;99203.22;4966175;28;20093;-82
2024/01/02 09:52:42;;;;;;;3.40;1.60;;;9.10;54.40;;;8.25;100.00;99197.94;4966242;28;20062;-81
2024/01/02 09:55:33;;;;;;;1.67;1.27;;;9.30;61.20;;;8.23;100.00;99190.13;4978081;28;20656;-80
2024/01/02 09:58:31;;;;;;;1.50;1.40;;;9.30;61.90;;;7.91;100.00;99182.41;4970921;28;20038;-80
2024/01/02 10:01:39;;;;;;;2.08;1.48;;;9.20;65.90;;;8.12;100.00;99216.69;4973972;28;20635;-80
2024/01/02 10:04:38;;;;;;;1.80;1.70;;;9.20;73.10;;;7.89;100.00;99167.66;4967240;28;20067;-82
2024/01/02 10:07:27;;;;;;;2.33;1.50;;;9.20;80.50;;;8.04;100.00;99176.75;4979137;28;20497;-80
2024/01/02 10:11:00;;;;;;;1.50;1.20;;;9.10;81.00;;;7.80;100.00;99167.06;4968038;28;20055;-79
2024/01/02 10:13:49;;;;;;;1.98;1.60;;;9.30;85.00;;;8.01;100.00;99190.84;4968530;28;20062;-81
2024/01/02 10:16:38;;;;;;;2.22;1.40;;;9.10;84.20;;;8.06;100.00;99193.31;4980406;28;20058;-79
2024/01/02 10:19:41;;;;;;;1.55;1.40;;;9.20;80.70;;;7.87;100.00;99162.44;4993376;28;20046;-82
2024/01/02 10:23:10;;;;;;;2.75;1.40;;;9.20;84.30;;;8.00;100.00;99170.78;4960646;28;20402;-81
2024/01/02 10:25:39;;;;;;;2.25;1.20;;;9.20;88.20;;;8.00;100.00;99176.03;4928804;29;20068;-81
2024/01/02 10:28:27;;;;;;;1.52;1.20;;;9.30;84.80;;;7.98;100.00;99145.53;4990728;28;20416;-82
2024/01/02 10:31:31;;;;;;;1.45;1.35;;;9.20;83.40;;;8.08;100.00;99153.03;4969038;28;20426;-82
2024/01/02 10:34:30;;;;;;;1.90;1.50;;;9.50;82.10;;;8.15;100.00;99155.47;4998084;28;20046;-80
2024/01/02 10:37:02;;;;;;;1.83;1.38;;;9.30;84.80;;;8.11;100.00;99151.22;4973382;28;20046;-81
2024/01/02 10:39:44;;;;;;;1.73;1.50;;;9.70;86.30;;;7.81;100.00;99102.44;4962212;28;20042;-83